Terminal Aerodrome Forecast
Issued by NWS

Home | Current Version | Previous Version | Text Only | Print | Product List | Glossary On
Versions: 1 2 3 4 5 6 7 8 9 10 11 12 13 14 15 16 17 18 19 20 21
000
FTUS46 KPDT 311700
TAFYKM
TAF
KYKM 311739Z 3118/0118 VRB04KT P6SM VCSH SCT008 BKN025 OVC060
      TEMPO 3118/3120 5SM -SHRA BR OVC007
     FM312000 20007KT P6SM SCT080 BKN100
     FM010000 29003KT P6SM SCT100 BKN150 OVC200
     FM010900 29003KT P6SM FEW010 BKN150 OVC200=

USA.gov is the U.S. government's official web portal to all federal, state and local government web resources and services.